createdAt,value
2018-01-01T00:00:40.254Z,73.20
2018-01-01T00:03:07.841Z,70.00
2018-01-01T00:05:35.458Z,69.03
2018-01-01T00:08:03.634Z,65.97
2018-01-01T00:10:31.145Z,48.20
2018-01-01T00:12:58.854Z,48.20
2018-01-01T00:15:27.146Z,39.63
2018-01-01T00:17:54.665Z,38.03
2018-01-01T00:20:23.087Z,27.67
2018-01-01T00:22:51.650Z,29.63
2018-01-01T00:25:19.995Z,27.57
2018-01-01T00:27:48.995Z,24.63
2018-01-01T00:30:16.501Z,23.03
2018-01-01T00:32:44.188Z,23.33
2018-01-01T00:35:11.714Z,18.83
2018-01-01T00:37:39.287Z,21.27
2018-01-01T00:40:07.641Z,37.10
2018-01-01T00:42:35.164Z,20.53
2018-01-01T00:45:02.721Z,15.93
2018-01-01T00:47:31.000Z,12.80
2018-01-01T00:49:58.560Z,12.37
2018-01-01T00:52:26.133Z,22.53
2018-01-01T00:54:54.299Z,31.20
2018-01-01T00:57:21.928Z,14.17
2018-01-01T00:59:49.460Z,20.50
2018-01-01T01:02:17.886Z,17.70
2018-01-01T01:04:48.188Z,17.90
2018-01-01T01:07:16.026Z,19.80
2018-01-01T01:09:44.913Z,16.60
2018-01-01T01:12:12.501Z,21.50
2018-01-01T01:14:40.188Z,15.23
2018-01-01T01:17:07.721Z,16.63
2018-01-01T01:19:35.281Z,20.17
2018-01-01T01:22:02.820Z,14.90
2018-01-01T01:24:31.093Z,17.37
2018-01-01T01:26:59.424Z,12.67
2018-01-01T01:29:28.467Z,12.27
2018-01-01T01:31:56.933Z,11.60
2018-01-01T01:34:24.548Z,13.47
2018-01-01T01:36:52.944Z,10.77
2018-01-01T01:39:21.567Z,9.80
2018-01-01T01:41:49.737Z,15.47
2018-01-01T01:44:17.455Z,14.37
2018-01-01T01:46:46.478Z,13.20
2018-01-01T01:49:14.057Z,14.03
2018-01-01T01:51:41.605Z,9.43
2018-01-01T01:54:09.088Z,14.90
2018-01-01T01:56:36.897Z,17.97
2018-01-01T01:59:05.147Z,10.90
2018-01-01T02:01:32.745Z,10.80
2018-01-01T02:04:01.094Z,11.63
2018-01-01T02:06:29.766Z,8.93
2018-01-01T02:08:57.325Z,10.40
2018-01-01T02:11:24.994Z,10.27
2018-01-01T02:13:52.800Z,8.07
2018-01-01T02:16:21.056Z,8.60
2018-01-01T02:18:48.703Z,8.80
2018-01-01T02:21:16.255Z,18.83
2018-01-01T02:23:44.740Z,9.77
2018-01-01T02:26:12.251Z,12.50
2018-01-01T02:28:39.738Z,11.70
2018-01-01T02:31:07.333Z,15.30
2018-01-01T02:33:34.847Z,14.73
2018-01-01T02:36:03.347Z,9.37
2018-01-01T02:38:31.820Z,10.17
2018-01-01T02:40:59.329Z,9.87
2018-01-01T02:43:28.739Z,12.87
2018-01-01T02:45:56.265Z,10.30
2018-01-01T02:48:25.252Z,8.43
2018-01-01T02:50:54.448Z,8.27
2018-01-01T02:53:22.525Z,9.30
2018-01-01T02:55:50.647Z,13.77
2018-01-01T02:58:18.320Z,11.30
2018-01-01T03:00:45.873Z,11.00
2018-01-01T03:03:14.097Z,8.03
2018-01-01T03:05:41.783Z,8.23
2018-01-01T03:08:09.286Z,9.90
2018-01-01T03:10:37.173Z,9.60
2018-01-01T03:13:04.844Z,6.70
2018-01-01T03:15:32.905Z,10.30
2018-01-01T03:18:00.424Z,11.00
2018-01-01T03:20:28.100Z,10.33
2018-01-01T03:22:57.593Z,6.67
2018-01-01T03:25:26.187Z,9.83
2018-01-01T03:27:53.686Z,9.60
2018-01-01T03:30:21.993Z,9.20
2018-01-01T03:32:49.595Z,5.37
2018-01-01T03:35:17.941Z,8.03
2018-01-01T03:37:46.288Z,5.77
2018-01-01T03:40:13.830Z,4.20
2018-01-01T03:42:41.332Z,3.97
2018-01-01T03:45:09.623Z,4.13
2018-01-01T03:47:37.170Z,5.10
2018-01-01T03:50:05.468Z,9.10
2018-01-01T03:52:33.005Z,2.90
2018-01-01T03:55:01.313Z,4.10
2018-01-01T03:57:28.834Z,3.90
2018-01-01T03:59:56.482Z,2.60
2018-01-01T04:02:24.897Z,2.80
2018-01-01T04:04:53.666Z,3.03
2018-01-01T04:07:21.411Z,5.83
2018-01-01T04:09:49.153Z,4.97
2018-01-01T04:12:17.446Z,1.80
2018-01-01T04:14:45.208Z,2.20
2018-01-01T04:17:13.560Z,3.17
2018-01-01T04:19:41.963Z,6.37
2018-01-01T04:22:09.705Z,1.83
2018-01-01T04:24:38.001Z,2.03
2018-01-01T04:27:06.505Z,3.67
2018-01-01T04:29:34.024Z,4.03
2018-01-01T04:32:01.537Z,2.67
2018-01-01T04:34:29.062Z,6.00
2018-01-01T04:36:57.372Z,3.20
2018-01-01T04:39:24.930Z,4.13
2018-01-01T04:41:53.014Z,1.90
2018-01-01T04:44:20.689Z,2.53
2018-01-01T04:46:48.826Z,3.87
2018-01-01T04:49:16.590Z,3.50
2018-01-01T04:51:44.389Z,3.10
2018-01-01T04:54:13.061Z,1.90
2018-01-01T04:56:41.590Z,3.13
2018-01-01T04:59:10.402Z,4.20
2018-01-01T05:01:37.964Z,2.60
2018-01-01T05:04:05.735Z,5.57
2018-01-01T05:06:34.936Z,2.03
2018-01-01T05:09:02.599Z,2.73
2018-01-01T05:11:30.518Z,3.83
2018-01-01T05:13:58.780Z,5.27
2018-01-01T05:16:26.756Z,9.67
2018-01-01T05:18:55.048Z,3.90
2018-01-01T05:21:23.443Z,5.77
2018-01-01T05:23:51.780Z,3.70
2018-01-01T05:26:19.404Z,3.27
2018-01-01T05:28:47.089Z,2.60
2018-01-01T05:31:15.969Z,2.20
2018-01-01T05:33:43.681Z,1.47
2018-01-01T05:36:11.173Z,1.70
2018-01-01T05:38:39.681Z,1.80
2018-01-01T05:41:07.468Z,1.50
2018-01-01T05:43:35.688Z,3.30
2018-01-01T05:46:03.193Z,1.33
2018-01-01T05:48:30.809Z,2.20
2018-01-01T05:50:58.304Z,6.53
2018-01-01T05:53:26.645Z,4.03
2018-01-01T05:55:55.018Z,3.20
2018-01-01T05:58:22.550Z,1.20
2018-01-01T06:00:50.399Z,2.80
2018-01-01T06:03:19.073Z,5.57
2018-01-01T06:05:46.601Z,3.73
2018-01-01T06:08:14.109Z,2.60
2018-01-01T06:10:43.352Z,2.30
2018-01-01T06:13:10.914Z,3.37
2018-01-01T06:15:38.573Z,5.40
2018-01-01T06:18:06.196Z,3.73
2018-01-01T06:20:33.699Z,1.70
2018-01-01T06:23:01.233Z,2.40
2018-01-01T06:25:29.534Z,3.70
2018-01-01T06:27:57.064Z,2.70
2018-01-01T06:30:25.298Z,5.30
2018-01-01T06:32:52.814Z,5.33
2018-01-01T06:35:21.045Z,3.00
2018-01-01T06:37:48.625Z,3.47
2018-01-01T06:40:17.121Z,1.10
2018-01-01T06:42:44.682Z,3.20
2018-01-01T06:45:12.228Z,3.53
2018-01-01T06:47:40.288Z,1.60
2018-01-01T06:50:08.608Z,1.87
2018-01-01T06:52:36.825Z,3.00
2018-01-01T06:55:05.132Z,3.80
2018-01-01T06:57:32.652Z,2.87
2018-01-01T07:00:00.962Z,3.17
2018-01-01T07:02:29.270Z,2.10
2018-01-01T07:04:56.796Z,2.57
2018-01-01T07:07:25.244Z,5.07
2018-01-01T07:09:53.541Z,1.53
2018-01-01T07:12:21.110Z,3.03
2018-01-01T07:14:50.619Z,5.87
2018-01-01T07:17:19.005Z,9.90
2018-01-01T07:19:46.525Z,2.97
2018-01-01T07:22:14.119Z,1.40
2018-01-01T07:24:41.630Z,4.03
2018-01-01T07:27:09.163Z,8.93
2018-01-01T07:29:37.990Z,2.10
2018-01-01T07:32:05.521Z,2.60
2018-01-01T07:34:34.097Z,3.90
2018-01-01T07:37:01.616Z,5.50
2018-01-01T07:39:29.223Z,4.33
2018-01-01T07:41:56.814Z,1.60
2018-01-01T07:44:25.831Z,2.30
2018-01-01T07:46:53.365Z,3.47
2018-01-01T07:49:21.676Z,1.57
2018-01-01T07:51:49.181Z,7.17
2018-01-01T07:54:16.749Z,1.70
2018-01-01T07:56:44.391Z,2.00
2018-01-01T07:59:11.969Z,1.87
2018-01-01T08:01:40.229Z,2.10
2018-01-01T08:04:08.464Z,6.07
2018-01-01T08:06:36.799Z,2.40
2018-01-01T08:09:04.402Z,2.77
2018-01-01T08:11:32.722Z,1.90
2018-01-01T08:14:01.213Z,6.53
2018-01-01T08:16:28.729Z,4.60
2018-01-01T08:18:56.229Z,3.63
2018-01-01T08:21:23.740Z,3.07
2018-01-01T08:23:51.248Z,3.70
2018-01-01T08:26:18.924Z,2.50
2018-01-01T08:28:46.446Z,6.90
2018-01-01T08:31:15.472Z,2.23
2018-01-01T08:33:42.996Z,5.03
2018-01-01T08:36:10.500Z,1.40
2018-01-01T08:38:39.011Z,2.13
2018-01-01T08:41:07.308Z,3.17
2018-01-01T08:43:34.949Z,3.47
2018-01-01T08:46:02.500Z,5.13
2018-01-01T08:48:30.994Z,3.13
2018-01-01T08:50:59.055Z,1.97
2018-01-01T08:53:26.637Z,3.20
2018-01-01T08:55:54.193Z,3.27
2018-01-01T08:58:22.565Z,2.73
2018-01-01T09:00:50.900Z,3.70
2018-01-01T09:03:18.438Z,3.53
2018-01-01T09:05:45.956Z,1.30
2018-01-01T09:08:14.272Z,3.17
2018-01-01T09:10:41.977Z,1.63
2018-01-01T09:13:09.472Z,1.70
2018-01-01T09:15:37.063Z,3.40
2018-01-01T09:18:05.567Z,3.10
2018-01-01T09:20:33.069Z,2.03
2018-01-01T09:23:00.595Z,10.53
2018-01-01T09:25:28.112Z,3.53
2018-01-01T09:27:55.721Z,2.43
2018-01-01T09:30:23.300Z,9.13
2018-01-01T09:32:51.201Z,5.20
2018-01-01T09:37:51.758Z,2.60
2018-01-01T09:40:20.015Z,4.30
2018-01-01T09:42:48.591Z,3.13
2018-01-01T09:45:16.540Z,5.27
2018-01-01T09:47:44.308Z,4.77
2018-01-01T09:50:12.184Z,2.53
2018-01-01T09:52:39.773Z,2.57
2018-01-01T09:55:07.589Z,4.93
2018-01-01T09:57:35.770Z,2.13
2018-01-01T10:00:03.371Z,3.20
2018-01-01T10:02:32.067Z,1.27
2018-01-01T10:04:59.727Z,5.03
2018-01-01T10:07:27.254Z,2.83
2018-01-01T10:09:55.619Z,3.97
2018-01-01T10:12:23.398Z,1.20
2018-01-01T10:14:52.597Z,2.40
2018-01-01T10:17:20.305Z,3.60
2018-01-01T10:19:48.393Z,8.30
2018-01-01T10:22:16.084Z,4.77
2018-01-01T10:24:43.679Z,2.93
2018-01-01T10:27:12.000Z,1.97
2018-01-01T10:29:40.408Z,2.77
2018-01-01T10:32:07.960Z,1.43
2018-01-01T10:34:36.860Z,2.13
2018-01-01T10:37:05.220Z,1.63
2018-01-01T10:39:33.622Z,1.73
2018-01-01T10:42:01.179Z,2.20
2018-01-01T10:44:28.975Z,5.50
2018-01-01T10:46:57.146Z,1.93
2018-01-01T10:49:24.804Z,5.63
2018-01-01T10:51:53.107Z,0.97
2018-01-01T10:54:21.025Z,3.67
2018-01-01T10:56:48.576Z,5.33
2018-01-01T10:59:17.910Z,2.40
2018-01-01T11:01:47.152Z,5.23
2018-01-01T11:04:14.728Z,6.50
2018-01-01T11:06:43.135Z,10.20
2018-01-01T11:09:11.637Z,2.50
2018-01-01T11:11:39.239Z,7.30
2018-01-01T11:14:07.672Z,1.43
2018-01-01T11:16:36.364Z,0.97
2018-01-01T11:19:03.897Z,1.97
2018-01-01T11:21:31.508Z,5.67
2018-01-01T11:24:00.008Z,1.40
2018-01-01T11:26:29.721Z,2.17
2018-01-01T11:28:57.336Z,2.73
2018-01-01T11:31:25.408Z,3.13
2018-01-01T11:33:53.888Z,2.83
2018-01-01T11:36:21.662Z,1.27
2018-01-01T11:38:49.212Z,2.37
2018-01-01T11:41:16.782Z,7.00
2018-01-01T11:43:44.343Z,4.67
2018-01-01T11:46:12.577Z,6.23
2018-01-01T11:48:41.154Z,2.33
2018-01-01T11:51:09.262Z,5.30
2018-01-01T11:53:36.811Z,4.57
2018-01-01T11:56:05.122Z,4.37
2018-01-01T11:58:32.818Z,1.17
2018-01-01T12:01:01.602Z,8.97
2018-01-01T12:03:29.897Z,2.70
2018-01-01T12:05:59.322Z,3.80
2018-01-01T12:08:28.562Z,1.53
2018-01-01T12:10:56.302Z,2.37
2018-01-01T12:13:24.615Z,4.43
2018-01-01T12:15:52.759Z,6.90
2018-01-01T12:18:21.257Z,1.70
2018-01-01T12:20:48.755Z,1.93
2018-01-01T12:23:17.383Z,3.00
2018-01-01T12:25:45.581Z,8.93
2018-01-01T12:28:13.662Z,3.50
2018-01-01T12:30:41.395Z,3.57
2018-01-01T12:33:09.834Z,1.90
2018-01-01T12:35:37.424Z,7.40
2018-01-01T12:38:05.005Z,2.00
2018-01-01T12:40:32.988Z,2.33
2018-01-01T12:43:01.308Z,3.30
2018-01-01T12:45:28.890Z,5.50
2018-01-01T12:47:56.410Z,2.97
2018-01-01T12:50:24.007Z,6.70
2018-01-01T12:52:51.689Z,3.60
2018-01-01T12:55:19.254Z,8.57
2018-01-01T12:57:46.803Z,5.33
2018-01-01T13:00:14.418Z,7.40
2018-01-01T13:02:42.767Z,6.43
2018-01-01T13:05:12.750Z,5.83
2018-01-01T13:07:40.833Z,7.20
2018-01-01T13:10:08.566Z,5.03
2018-01-01T13:12:36.175Z,2.60
2018-01-01T13:15:03.787Z,3.83
2018-01-01T13:17:31.451Z,5.10
2018-01-01T13:19:59.827Z,4.30
2018-01-01T13:22:27.426Z,5.17
2018-01-01T13:24:55.299Z,3.47
2018-01-01T13:27:24.637Z,4.70
2018-01-01T13:29:53.729Z,2.80
2018-01-01T13:32:22.764Z,7.57
2018-01-01T13:34:52.158Z,2.70
2018-01-01T13:37:19.772Z,1.20
2018-01-01T13:39:47.292Z,2.40
2018-01-01T13:42:15.673Z,2.17
2018-01-01T13:44:43.210Z,1.37
2018-01-01T13:47:11.509Z,1.90
2018-01-01T13:49:39.021Z,5.20
2018-01-01T13:52:06.631Z,3.93
2018-01-01T13:54:34.110Z,3.90
2018-01-01T13:57:01.675Z,5.07
2018-01-01T13:59:29.205Z,1.70
2018-01-01T14:01:56.785Z,1.60
2018-01-01T14:04:24.340Z,1.90
2018-01-01T14:06:51.932Z,3.23
2018-01-01T14:09:19.482Z,2.43
2018-01-01T14:11:47.065Z,2.73
2018-01-01T14:14:14.606Z,2.57
2018-01-01T14:16:42.210Z,1.97
2018-01-01T14:19:09.715Z,3.73
2018-01-01T14:21:37.363Z,4.03
2018-01-01T14:24:05.649Z,6.80
2018-01-01T14:26:34.053Z,5.10
2018-01-01T14:29:01.549Z,8.50
2018-01-01T14:31:29.048Z,21.97
2018-01-01T14:33:57.366Z,5.03
2018-01-01T14:36:24.953Z,5.87
2018-01-01T14:38:52.450Z,5.30
2018-01-01T14:41:19.986Z,3.20
2018-01-01T14:43:47.650Z,7.80
2018-01-01T14:46:15.158Z,7.03
2018-01-01T14:48:42.759Z,5.57
2018-01-01T14:51:10.278Z,5.30
2018-01-01T14:53:38.691Z,2.47
2018-01-01T14:56:06.301Z,3.83
2018-01-01T14:58:33.844Z,1.20
2018-01-01T15:01:01.352Z,1.10
2018-01-01T15:03:29.938Z,3.53
2018-01-01T15:05:57.513Z,3.10
2018-01-01T15:08:25.798Z,3.67
2018-01-01T15:10:53.380Z,6.67
2018-01-01T15:13:21.181Z,1.87
2018-01-01T15:15:48.760Z,2.17
2018-01-01T15:18:16.291Z,7.40
2018-01-01T15:20:44.440Z,3.67
2018-01-01T15:23:12.773Z,3.97
2018-01-01T15:25:40.276Z,2.93
2018-01-01T15:28:08.933Z,7.37
2018-01-01T15:30:36.529Z,4.83
2018-01-01T15:33:04.932Z,2.90
2018-01-01T15:35:33.455Z,5.30
2018-01-01T15:38:01.109Z,3.53
2018-01-01T15:40:28.628Z,2.93
2018-01-01T15:42:57.589Z,3.87
2018-01-01T15:45:25.139Z,7.00
2018-01-01T15:47:52.716Z,5.10
2018-01-01T15:50:20.276Z,3.60
2018-01-01T15:52:48.945Z,4.17
2018-01-01T15:55:16.598Z,9.20
2018-01-01T15:57:44.230Z,5.83
2018-01-01T16:00:12.517Z,9.63
2018-01-01T16:02:41.971Z,22.63
2018-01-01T16:05:09.452Z,5.97
2018-01-01T16:07:36.978Z,10.60
2018-01-01T16:10:04.486Z,10.60
2018-01-01T16:12:32.077Z,8.40
2018-01-01T16:15:00.632Z,6.93
2018-01-01T16:17:28.215Z,7.03
2018-01-01T16:19:55.830Z,9.27
2018-01-01T16:22:24.480Z,6.43
2018-01-01T16:24:52.824Z,16.53
2018-01-01T16:27:20.346Z,6.67
2018-01-01T16:29:48.683Z,6.83
2018-01-01T16:32:16.205Z,11.43
2018-01-01T16:34:44.514Z,3.60
2018-01-01T16:37:12.016Z,8.33
2018-01-01T16:39:39.668Z,10.30
2018-01-01T16:42:08.922Z,3.60
2018-01-01T16:44:36.496Z,14.70
2018-01-01T16:47:06.415Z,5.53
2018-01-01T16:49:33.933Z,3.17
2018-01-01T16:52:01.549Z,3.50
2018-01-01T16:54:29.136Z,3.57
2018-01-01T16:56:56.672Z,8.47
2018-01-01T16:59:24.170Z,4.30
2018-01-01T17:01:51.756Z,2.10
2018-01-01T17:04:20.038Z,4.60
2018-01-01T17:06:48.394Z,6.53
2018-01-01T17:09:15.929Z,2.50
2018-01-01T17:11:43.444Z,7.00
2018-01-01T17:14:10.994Z,5.13
2018-01-01T17:16:38.559Z,8.00
2018-01-01T17:19:06.269Z,10.07
2018-01-01T17:21:33.801Z,7.77
2018-01-01T17:24:01.402Z,8.40
2018-01-01T17:26:29.056Z,15.10
2018-01-01T17:28:57.440Z,15.50
2018-01-01T17:31:25.139Z,10.90
2018-01-01T17:33:52.877Z,10.50
2018-01-01T17:36:20.565Z,8.90
2018-01-01T17:38:48.089Z,10.13
2018-01-01T17:41:15.682Z,7.60
2018-01-01T17:43:43.241Z,9.57
2018-01-01T17:46:11.529Z,17.67
2018-01-01T17:48:39.064Z,12.53
2018-01-01T17:51:07.841Z,7.57
2018-01-01T17:53:35.401Z,17.23
2018-01-01T17:56:03.717Z,9.83
2018-01-01T17:58:31.281Z,14.77
2018-01-01T18:00:59.572Z,16.07
2018-01-01T18:03:27.192Z,16.10
2018-01-01T18:05:54.832Z,22.30
2018-01-01T18:08:22.367Z,18.97
2018-01-01T18:10:50.758Z,29.87
2018-01-01T18:13:18.272Z,32.67
2018-01-01T18:15:45.796Z,39.90
2018-01-01T18:18:13.817Z,30.80
2018-01-01T18:20:41.879Z,38.13
2018-01-01T18:23:09.447Z,22.63
2018-01-01T18:25:37.004Z,21.83
2018-01-01T18:28:04.540Z,15.53
2018-01-01T18:30:32.048Z,23.87
2018-01-01T18:32:59.605Z,11.17
2018-01-01T18:35:27.198Z,15.80
2018-01-01T18:37:54.694Z,12.03
2018-01-01T18:40:22.258Z,12.93
2018-01-01T18:42:49.735Z,19.80
2018-01-01T18:45:17.986Z,17.73
2018-01-01T18:47:45.539Z,21.60
2018-01-01T18:50:13.838Z,20.83
2018-01-01T18:52:41.377Z,16.33
2018-01-01T18:55:08.936Z,27.10
2018-01-01T18:57:39.374Z,13.90
2018-01-01T19:00:07.705Z,15.37
2018-01-01T19:02:35.287Z,15.87
2018-01-01T19:05:02.833Z,25.23
2018-01-01T19:07:30.477Z,23.03
2018-01-01T19:09:58.805Z,21.07
2018-01-01T19:12:27.111Z,21.77
2018-01-01T19:14:55.411Z,26.67
2018-01-01T19:17:22.950Z,26.90
2018-01-01T19:19:51.293Z,23.10
2018-01-01T19:22:18.883Z,16.37
2018-01-01T19:24:47.061Z,28.27
2018-01-01T19:27:14.690Z,34.73
2018-01-01T19:29:42.367Z,30.67
2018-01-01T19:32:09.973Z,26.57
2018-01-01T19:34:39.041Z,33.73
2018-01-01T19:37:07.266Z,26.07
2018-01-01T19:39:35.069Z,23.50
2018-01-01T19:42:03.613Z,32.37
2018-01-01T19:44:31.907Z,24.43
2018-01-01T19:47:00.166Z,24.07
2018-01-01T19:49:28.436Z,25.50
2018-01-01T19:51:55.918Z,36.37
2018-01-01T19:54:24.172Z,33.93
2018-01-01T19:56:51.755Z,30.50
2018-01-01T19:59:24.230Z,19.67
2018-01-01T20:01:52.409Z,10.10
2018-01-01T20:04:20.714Z,12.57
2018-01-01T20:06:48.286Z,12.37
2018-01-01T20:09:15.782Z,7.83
2018-01-01T20:11:43.284Z,12.23
2018-01-01T20:14:10.861Z,14.60
2018-01-01T20:16:39.845Z,14.17
2018-01-01T20:19:08.097Z,12.87
2018-01-01T20:21:35.576Z,11.00
2018-01-01T20:24:03.105Z,13.80
2018-01-01T20:26:30.625Z,15.97
2018-01-01T20:28:58.900Z,15.30
2018-01-01T20:31:26.388Z,12.87
2018-01-01T20:33:54.656Z,18.50
2018-01-01T20:36:22.881Z,11.20
2018-01-01T20:38:52.757Z,9.40
2018-01-01T20:41:20.240Z,9.27
2018-01-01T20:43:47.748Z,17.23
2018-01-01T20:46:15.298Z,9.20
2018-01-01T20:48:42.802Z,8.80
2018-01-01T20:51:10.364Z,12.53
2018-01-01T20:53:38.623Z,11.43
2018-01-01T20:56:06.935Z,12.40
2018-01-01T20:58:34.494Z,9.00
2018-01-01T21:01:01.951Z,13.43
2018-01-01T21:03:31.416Z,13.67
2018-01-01T21:05:58.964Z,15.70
2018-01-01T21:08:26.473Z,15.40
2018-01-01T21:10:54.842Z,12.63
2018-01-01T21:13:23.865Z,8.80
2018-01-01T21:15:52.130Z,8.70
2018-01-01T21:18:19.732Z,11.60
2018-01-01T21:20:47.333Z,9.23
2018-01-01T21:23:14.826Z,9.83
2018-01-01T21:25:43.144Z,21.93
2018-01-01T21:28:10.665Z,17.43
2018-01-01T21:30:38.188Z,10.90
2018-01-01T21:33:05.678Z,18.20
2018-01-01T21:35:33.198Z,19.03
2018-01-01T21:38:00.762Z,9.07
2018-01-01T21:40:29.054Z,18.00
2018-01-01T21:42:56.662Z,17.33
2018-01-01T21:45:24.161Z,9.83
2018-01-01T21:47:51.668Z,9.47
2018-01-01T21:50:19.213Z,10.20
2018-01-01T21:52:46.737Z,13.83
2018-01-01T21:55:15.003Z,14.03
2018-01-01T21:57:42.543Z,12.43
2018-01-01T22:00:10.584Z,24.50
2018-01-01T22:02:38.928Z,11.10
2018-01-01T22:05:07.498Z,12.50
2018-01-01T22:07:35.129Z,12.43
2018-01-01T22:10:02.713Z,9.03
2018-01-01T22:12:30.218Z,20.17
2018-01-01T22:14:57.757Z,29.90
2018-01-01T22:17:25.273Z,11.40
2018-01-01T22:19:52.773Z,12.03
2018-01-01T22:22:20.300Z,24.77
2018-01-01T22:24:47.814Z,10.00
2018-01-01T22:27:15.377Z,17.67
2018-01-01T22:29:42.906Z,14.67
2018-01-01T22:32:10.396Z,18.77
2018-01-01T22:34:38.277Z,20.87
2018-01-01T22:37:06.064Z,14.80
2018-01-01T22:39:34.354Z,11.03
2018-01-01T22:42:02.632Z,16.20
2018-01-01T22:44:30.131Z,23.47
2018-01-01T22:46:57.608Z,11.50
2018-01-01T22:49:25.214Z,17.23
2018-01-01T22:51:53.462Z,22.20
2018-01-01T22:54:21.070Z,16.13
2018-01-01T22:56:49.333Z,22.67
2018-01-01T22:59:17.604Z,13.53
2018-01-01T23:01:45.189Z,11.27
2018-01-01T23:04:14.177Z,11.57
2018-01-01T23:06:42.454Z,16.00
2018-01-01T23:09:09.953Z,10.90
2018-01-01T23:11:37.509Z,11.03
2018-01-01T23:14:05.051Z,9.00
2018-01-01T23:16:33.345Z,10.57
2018-01-01T23:19:01.595Z,9.67
2018-01-01T23:21:29.081Z,10.47
2018-01-01T23:23:57.313Z,11.87
2018-01-01T23:26:24.850Z,16.63
2018-01-01T23:28:52.346Z,12.30
2018-01-01T23:31:19.884Z,8.90
2018-01-01T23:33:47.351Z,9.50
2018-01-01T23:36:14.831Z,10.03
2018-01-01T23:38:43.021Z,7.70
2018-01-01T23:41:10.517Z,12.90
2018-01-01T23:43:38.834Z,7.37
2018-01-01T23:46:06.355Z,7.63
2018-01-01T23:48:35.574Z,11.93
2018-01-01T23:51:03.838Z,7.30
2018-01-01T23:53:32.140Z,5.60
2018-01-01T23:55:59.652Z,9.20
2018-01-01T23:58:27.759Z,7.00
